NWWW METAR and TAF weather

Enter ICAO airport designator
Station Type Date Time Source
NWWW METAR 2024/04/18 07:00 UTC NOAA

NWWW 180700Z AUTO 02004KT CAVOK 27/18 Q1013 NOSIG


Station Type Date Time Source
NWWW Decoded METAR 2024/04/18 07:00 UTC NOAA

La Tontouta Nlle-Caledonie , New Caledonia (NWWW) 22-01S 166-13E 14M
Apr 18, 2024 - 03:00 AM EDT / 2024.04.18 0700 UTC
Wind: from the NNE (020 degrees) at 5 MPH (4 KT):0
Visibility: greater than 7 mile(s):0
Temperature: 80 F (27 C)
Dew Point: 64 F (18 C)
Relative Humidity: 57%
Pressure (altimeter): 29.91 in. Hg (1013 hPa)
ob: NWWW 180700Z AUTO 02004KT CAVOK 27/18 Q1013 NOSIG
cycle: 7

Station Type Date Time Source
NWWW TAF 2024/04/18 18:59 UTC NOAA